Time;durP1;ratioP1;P1;durP2;ratioP2;P2;SDS_P1;SDS_P2;PMS_P1;PMS_P2;Temp;Humidity;BMP_temperature;BMP_pressure;BME280_temperature;BME280_humidity;BME280_pressure;Samples;Min_cycle;Max_cycle;Signal;HPM_P1;HPM_P2
2022/11/04 00:02:06;;;;;;;22.17;16.20;;;;;;;20.86;64.50;100132.97;5057801;28;20060;-78
2022/11/04 00:04:34;;;;;;;23.92;17.30;;;;;;;20.87;64.54;100132.84;5057426;28;20107;-78
2022/11/04 00:08:22;;;;;;;21.48;17.05;;;;;;;20.86;64.46;100119.53;5057742;28;20486;-76
2022/11/04 00:09:48;;;;;;;24.13;16.83;;;;;;;20.86;64.60;100119.53;5057241;28;20392;-78
2022/11/04 00:12:24;;;;;;;20.90;15.70;;;;;;;20.85;64.59;100102.53;5056277;28;20045;-78
2022/11/04 00:14:53;;;;;;;23.20;17.05;;;;;;;20.85;64.37;100085.56;5057229;28;20104;-78
2022/11/04 00:17:23;;;;;;;21.38;16.48;;;;;;;20.85;64.21;100083.72;5057173;28;20056;-78
2022/11/04 00:33:53;;;;;;;21.13;16.40;;;;;;;20.84;64.28;100059.66;5056903;28;20056;-77
2022/11/04 00:36:23;;;;;;;21.13;16.60;;;;;;;20.83;64.66;100042.69;5054940;28;20041;-77
2022/11/04 00:38:51;;;;;;;21.95;15.73;;;;;;;20.84;64.52;100046.22;5056564;28;20049;-77
2022/11/04 00:41:28;;;;;;;18.75;15.52;;;;;;;20.84;64.39;100038.16;5056838;28;20067;-77
2022/11/04 00:44:01;;;;;;;23.10;16.95;;;;;;;20.84;64.47;100022.00;5056995;28;20049;-77
2022/11/04 00:46:30;;;;;;;18.23;14.57;;;;;;;20.83;64.49;100015.78;5056514;28;20392;-77
2022/11/04 00:48:58;;;;;;;20.05;16.35;;;;;;;20.83;64.47;100014.94;5056550;28;20040;-77
2022/11/04 00:51:26;;;;;;;19.20;15.13;;;;;;;20.83;64.54;100025.72;5056167;28;20484;-77
2022/11/04 00:53:53;;;;;;;20.20;16.38;;;;;;;20.81;64.52;100015.09;5056367;28;20055;-77
2022/11/04 00:56:20;;;;;;;20.73;16.10;;;;;;;20.82;64.36;100011.38;5056366;28;20036;-77
2022/11/04 00:58:48;;;;;;;20.67;16.20;;;;;;;20.81;64.54;100012.41;5056947;28;20052;-77
2022/11/04 01:01:17;;;;;;;20.27;14.40;;;;;;;20.81;64.36;100011.56;5056475;28;20045;-78
2022/11/04 01:03:49;;;;;;;20.80;15.95;;;;;;;20.81;64.57;100009.72;5056371;28;20048;-77
2022/11/04 01:06:18;;;;;;;17.98;15.35;;;;;;;20.82;64.43;100005.16;5056024;28;20045;-77
2022/11/04 01:08:46;;;;;;;17.80;15.05;;;;;;;20.82;64.46;100000.63;5055552;28;20049;-77
2022/11/04 01:11:14;;;;;;;21.50;16.00;;;;;;;20.82;64.40;99997.09;5056306;28;20048;-77
2022/11/04 01:13:42;;;;;;;21.10;15.40;;;;;;;20.81;64.51;99984.66;5055898;28;20048;-77
2022/11/04 01:16:10;;;;;;;21.75;15.35;;;;;;;20.80;64.52;99978.44;5055656;28;20040;-77
2022/11/04 01:18:40;;;;;;;22.17;14.88;;;;;;;20.81;64.51;99976.59;5056176;28;20052;-78
2022/11/04 01:21:11;;;;;;;20.10;15.30;;;;;;;20.80;64.59;99970.38;5054396;28;20053;-77
2022/11/04 01:23:40;;;;;;;17.10;14.23;;;;;;;20.80;64.46;99973.06;5055240;28;20055;-77
2022/11/04 01:26:12;;;;;;;19.77;15.23;;;;;;;20.80;64.51;99962.31;5055937;28;20044;-77
2022/11/04 01:28:40;;;;;;;17.88;14.95;;;;;;;20.80;64.59;99956.91;5055648;28;20056;-77
2022/11/04 01:31:09;;;;;;;22.70;15.10;;;;;;;20.81;64.42;99955.06;5055450;28;20048;-77
2022/11/04 01:33:38;;;;;;;19.02;15.07;;;;;;;20.80;64.53;99956.06;5054105;28;20052;-77
2022/11/04 01:36:06;;;;;;;20.55;15.77;;;;;;;20.80;64.43;99953.38;5056032;28;20037;-77
2022/11/04 01:38:34;;;;;;;18.58;14.57;;;;;;;20.80;64.40;99937.25;5055261;28;20063;-77
2022/11/04 01:41:02;;;;;;;18.98;15.57;;;;;;;20.79;64.36;99939.09;5055545;28;20049;-78
2022/11/04 01:43:48;;;;;;;19.92;14.60;;;;;;;20.80;64.51;99942.63;5054966;28;20049;-77
2022/11/04 01:46:49;;;;;;;19.73;14.20;;;;;;;20.79;64.56;99930.19;5054784;28;20056;-78
2022/11/04 01:49:34;;;;;;;19.98;14.65;;;;;;;20.79;64.47;99919.44;5055467;28;20056;-78
2022/11/04 01:52:14;;;;;;;21.45;15.70;;;;;;;20.79;64.41;99916.75;5055438;28;20049;-78
2022/11/04 01:54:43;;;;;;;19.88;14.52;;;;;;;20.79;64.47;99917.59;5055203;28;20049;-78
2022/11/04 01:57:17;;;;;;;17.48;14.75;;;;;;;20.80;64.56;99910.34;5054786;28;20041;-78
2022/11/04 01:59:44;;;;;;;18.40;14.75;;;;;;;20.77;64.65;99900.75;5055616;28;20048;-78
2022/11/04 02:02:12;;;;;;;19.20;15.00;;;;;;;20.78;64.55;99907.81;5055577;28;20040;-78
2022/11/04 02:04:41;;;;;;;20.02;15.00;;;;;;;20.79;64.48;99895.22;5054766;28;20045;-78
2022/11/04 02:07:09;;;;;;;18.50;14.23;;;;;;;20.78;64.45;99872.84;5054986;28;20476;-78
2022/11/04 02:09:39;;;;;;;19.10;14.95;;;;;;;20.79;64.59;99862.94;5053889;28;20487;-78
2022/11/04 02:14:53;;;;;;;18.35;14.23;;;;;;;20.77;64.56;99846.94;5054799;28;20053;-78
2022/11/04 02:17:47;;;;;;;18.25;14.85;;;;;;;20.77;64.63;99846.94;5055207;28;20468;-78
2022/11/04 02:20:33;;;;;;;19.35;15.15;;;;;;;20.77;64.47;99849.66;5055213;28;20384;-78
2022/11/04 02:23:37;;;;;;;18.42;15.10;;;;;;;20.78;64.47;99845.09;5053798;28;20056;-78
2022/11/04 02:26:10;;;;;;;;;;;;;;;20.77;64.45;99833.50;5056128;28;20064;-78
2022/11/04 02:28:37;;;;;;;19.45;14.82;;;;;;;20.77;64.45;99824.59;5055142;28;19920;-77
2022/11/04 02:31:17;;;;;;;20.30;15.27;;;;;;;20.76;64.48;99814.84;5054528;28;20049;-77
2022/11/04 02:34:04;;;;;;;18.73;14.32;;;;;;;20.77;64.83;99816.53;5053894;28;20045;-77
2022/11/04 02:36:53;;;;;;;19.30;14.90;;;;;;;20.76;64.53;99807.63;5054623;28;20049;-77
2022/11/04 02:39:46;;;;;;;21.15;15.73;;;;;;;20.76;64.47;99796.88;5055275;28;20491;-77
2022/11/04 02:42:33;;;;;;;19.02;15.07;;;;;;;20.75;64.45;99781.75;5053735;28;20041;-77
2022/11/04 02:45:06;;;;;;;17.15;14.32;;;;;;;20.75;64.48;99779.06;5054716;28;20049;-77
2022/11/04 02:47:37;;;;;;;19.23;15.10;;;;;;;20.76;64.44;99777.19;5054097;28;20048;-77
2022/11/04 02:50:10;;;;;;;22.73;15.95;;;;;;;20.75;64.51;99768.28;5054634;28;20049;-77
2022/11/04 02:52:48;;;;;;;18.10;14.68;;;;;;;20.76;64.51;99766.44;5054676;28;20045;-78
2022/11/04 02:55:41;;;;;;;20.42;15.00;;;;;;;20.74;64.41;99753.13;5054083;28;20053;-76
2022/11/04 02:58:14;;;;;;;18.80;14.55;;;;;;;20.74;64.60;99737.00;5054168;28;20052;-77
2022/11/04 03:00:42;;;;;;;;;;;;;;;20.74;64.35;99732.50;5053644;28;20056;-77
2022/11/04 03:03:34;;;;;;;17.75;14.88;;;;;;;20.74;64.41;99731.63;5054450;28;19920;-78
2022/11/04 03:06:03;;;;;;;21.52;14.63;;;;;;;20.75;64.58;99744.09;5053212;28;20045;-78
2022/11/04 03:08:35;;;;;;;19.75;14.45;;;;;;;20.74;64.46;99743.25;5053961;28;20041;-80
2022/11/04 03:11:24;;;;;;;22.55;15.60;;;;;;;20.74;64.49;99742.38;5053575;28;20045;-77
2022/11/04 03:14:16;;;;;;;18.80;15.15;;;;;;;20.74;64.42;99742.38;5054346;28;20049;-77
2022/11/04 03:16:51;;;;;;;18.40;14.45;;;;;;;20.74;64.55;99748.63;5053965;28;20041;-77
2022/11/04 03:19:46;;;;;;;19.05;15.35;;;;;;;20.73;64.59;99741.53;5053942;28;20049;-78
2022/11/04 03:22:17;;;;;;;21.63;15.45;;;;;;;20.73;64.48;99748.78;5053155;28;20053;-77
2022/11/04 03:24:47;;;;;;;18.40;14.90;;;;;;;20.73;64.46;99736.16;5052754;28;20492;-78
2022/11/04 03:27:30;;;;;;;23.42;16.50;;;;;;;20.73;64.57;99733.47;5053535;28;20068;-77
2022/11/04 03:30:05;;;;;;;17.63;14.93;;;;;;;20.73;64.67;99740.72;5057770;28;20055;-77
2022/11/04 03:32:55;;;;;;;21.95;16.42;;;;;;;20.73;64.67;99746.09;5058229;28;20049;-77
2022/11/04 03:35:24;;;;;;;21.77;15.20;;;;;;;20.73;64.76;99746.09;5058014;28;20060;-77
2022/11/04 03:37:52;;;;;;;17.13;14.63;;;;;;;20.74;64.53;99747.75;5057255;28;20040;-77
2022/11/04 03:40:21;;;;;;;21.02;15.25;;;;;;;20.73;64.57;99752.31;5057420;28;20045;-78
2022/11/04 03:42:57;;;;;;;20.38;15.43;;;;;;;20.73;64.58;99746.09;5057382;28;20047;-77
2022/11/04 03:45:25;;;;;;;21.38;16.13;;;;;;;20.73;64.71;99751.47;5058020;28;20051;-77
2022/11/04 03:47:54;;;;;;;20.58;14.75;;;;;;;20.72;64.54;99750.63;5057796;28;20048;-77
2022/11/04 03:50:34;;;;;;;22.23;16.42;;;;;;;20.72;64.71;99760.56;5057469;28;20085;-77
2022/11/04 03:53:01;;;;;;;20.15;15.77;;;;;;;20.72;64.54;99749.78;5057917;28;20392;-77
2022/11/04 03:55:52;;;;;;;21.65;14.63;;;;;;;20.71;64.51;99750.81;5057260;28;20045;-78
2022/11/04 03:58:37;;;;;;;21.60;15.65;;;;;;;20.72;64.58;99747.94;5056272;28;20067;-78
2022/11/04 04:01:25;;;;;;;19.65;15.38;;;;;;;20.72;64.58;99745.25;5057270;28;20045;-78
2022/11/04 04:04:03;;;;;;;22.77;16.02;;;;;;;20.72;64.56;99755.16;5056932;28;20057;-78
2022/11/04 04:06:34;;;;;;;23.27;15.90;;;;;;;20.72;64.54;99744.41;5057278;28;20041;-78
2022/11/04 04:09:17;;;;;;;20.88;15.57;;;;;;;20.72;64.50;99739.88;5057593;28;20049;-78
2022/11/04 04:11:56;;;;;;;24.73;17.85;;;;;;;20.71;64.62;99731.97;5057422;28;20045;-78
2022/11/04 04:14:39;;;;;;;22.20;16.00;;;;;;;20.70;64.57;99724.91;5057307;28;20060;-78
2022/11/04 04:17:06;;;;;;;22.87;16.40;;;;;;;20.70;64.48;99715.00;5057519;28;20045;-78
2022/11/04 04:19:35;;;;;;;22.73;16.42;;;;;;;20.70;64.36;99712.31;5056841;28;20067;-78
2022/11/04 04:22:13;;;;;;;21.83;16.17;;;;;;;20.70;64.53;99712.31;5056672;28;20059;-78
2022/11/04 04:27:33;;;;;;;20.33;16.15;;;;;;;20.70;64.52;99715.00;5056473;28;20056;-78
2022/11/04 04:30:09;;;;;;;24.35;16.63;;;;;;;20.70;64.38;99704.25;5057269;28;20049;-78
2022/11/04 04:33:05;;;;;;;25.15;16.40;;;;;;;20.70;64.53;99692.63;5056639;28;20052;-78
2022/11/04 04:35:42;;;;;;;23.70;16.70;;;;;;;20.70;64.43;99716.81;5057403;28;20041;-77
2022/11/04 04:47:18;;;;;;;23.67;17.23;;;;;;;20.69;64.40;99729.44;5054749;28;20040;-77
2022/11/04 04:49:54;;;;;;;23.60;16.48;;;;;;;20.68;64.54;99730.44;5055341;28;20178;-77
2022/11/04 04:52:24;;;;;;;22.30;15.55;;;;;;;20.68;64.52;99730.44;5056134;28;20411;-77
2022/11/04 04:54:51;;;;;;;24.38;16.08;;;;;;;20.68;64.36;99730.44;5054287;28;20045;-77
2022/11/04 04:57:19;;;;;;;23.73;17.10;;;;;;;20.67;64.38;99720.72;5055208;28;20041;-78
2022/11/04 04:59:46;;;;;;;25.25;17.55;;;;;;;20.67;64.59;99709.97;5054580;28;20053;-78
2022/11/04 05:02:13;;;;;;;25.77;17.85;;;;;;;20.68;64.49;99710.78;5055709;28;20510;-77
2022/11/04 05:04:41;;;;;;;23.70;16.70;;;;;;;20.67;64.39;99707.25;5056186;28;20041;-77
2022/11/04 05:07:08;;;;;;;23.13;17.40;;;;;;;20.67;64.45;99704.56;5054897;28;20045;-78
2022/11/04 05:09:36;;;;;;;25.30;18.05;;;;;;;20.67;64.38;99699.19;5055774;28;20045;-78
2022/11/04 05:12:03;;;;;;;28.50;18.15;;;;;;;20.66;64.48;99713.66;5055948;28;20049;-78
2022/11/04 05:14:30;;;;;;;24.17;17.13;;;;;;;20.67;64.56;99718.03;5056033;28;20041;-79
2022/11/04 05:16:58;;;;;;;22.85;16.15;;;;;;;20.67;64.36;99709.97;5054266;28;20052;-79
2022/11/04 05:19:25;;;;;;;21.25;15.80;;;;;;;20.66;64.39;99702.03;5056023;28;20052;-78
2022/11/04 05:21:52;;;;;;;23.25;16.10;;;;;;;20.66;64.36;99713.66;5055852;28;20064;-78
2022/11/04 05:24:19;;;;;;;20.73;15.07;;;;;;;20.66;64.55;99708.28;5054715;28;20052;-78
2022/11/04 05:26:47;;;;;;;21.50;16.42;;;;;;;20.67;64.47;99714.50;5056134;28;20051;-78
2022/11/04 05:29:14;;;;;;;24.35;15.98;;;;;;;20.66;64.43;99727.09;5055634;28;20045;-78
2022/11/04 05:31:46;;;;;;;27.30;18.00;;;;;;;20.68;64.53;99732.31;5055693;28;20045;-79
2022/11/04 05:34:13;;;;;;;26.25;16.63;;;;;;;20.66;64.38;99732.47;5056002;28;20049;-79
2022/11/04 05:36:41;;;;;;;20.10;15.90;;;;;;;20.67;64.72;99725.25;5056063;28;20056;-78
2022/11/04 05:39:12;;;;;;;24.80;17.63;;;;;;;20.66;64.47;99713.66;5055602;28;20049;-78
2022/11/04 05:41:39;;;;;;;23.45;16.58;;;;;;;20.66;64.36;99715.47;5055909;28;20388;-78
2022/11/04 05:44:08;;;;;;;22.13;16.02;;;;;;;20.65;64.37;99711.97;5055058;28;20059;-78
2022/11/04 05:46:35;;;;;;;25.05;15.63;;;;;;;20.65;64.49;99714.66;5054261;28;20060;-78
2022/11/04 05:49:03;;;;;;;25.33;16.83;;;;;;;20.65;64.33;99722.72;5055495;28;20038;-78
2022/11/04 05:51:31;;;;;;;24.17;16.10;;;;;;;20.65;64.30;99720.03;5053339;28;20041;-78
2022/11/04 05:53:59;;;;;;;23.92;16.90;;;;;;;20.65;64.29;99722.72;5055708;28;20041;-77
2022/11/04 05:56:26;;;;;;;24.85;17.13;;;;;;;20.65;64.30;99727.25;5054797;28;20052;-78
2022/11/04 05:58:54;;;;;;;24.45;16.55;;;;;;;20.65;63.99;99721.88;5053856;28;20048;-77
2022/11/04 06:01:26;;;;;;;23.33;16.17;;;;;;;20.64;64.25;99726.41;5054320;28;20056;-77
2022/11/04 06:03:53;;;;;;;24.67;16.23;;;;;;;20.64;64.31;99726.41;5054930;28;20056;-77
2022/11/04 06:06:22;;;;;;;24.27;16.92;;;;;;;20.64;64.41;99731.78;5055020;28;20049;-78
2022/11/04 06:08:50;;;;;;;26.60;17.50;;;;;;;20.65;64.36;99729.94;5054512;28;20049;-78
2022/11/04 06:11:19;;;;;;;25.85;17.13;;;;;;;20.64;64.31;99741.72;5055218;28;20053;-78
2022/11/04 06:13:46;;;;;;;21.73;16.50;;;;;;;20.64;64.13;99750.63;5054731;28;20072;-78
2022/11/04 06:16:14;;;;;;;25.13;16.63;;;;;;;20.64;64.39;99771.28;5055141;28;20492;-78
2022/11/04 06:18:42;;;;;;;24.40;15.95;;;;;;;20.64;64.22;99787.44;5054769;28;20041;-78
2022/11/04 06:21:12;;;;;;;22.77;15.38;;;;;;;20.64;64.40;99796.34;5054678;28;20483;-78
2022/11/04 06:23:43;;;;;;;22.33;15.02;;;;;;;20.64;64.41;99817.00;5053603;28;20072;-78
2022/11/04 06:26:12;;;;;;;24.00;17.23;;;;;;;20.64;64.27;99834.00;5053793;28;20044;-78
2022/11/04 06:28:39;;;;;;;24.45;16.77;;;;;;;20.63;64.45;99843.06;5053512;28;20056;-78
2022/11/04 06:31:08;;;;;;;22.17;16.30;;;;;;;20.63;64.25;99894.16;5054103;28;20052;-79
2022/11/04 06:33:36;;;;;;;22.08;15.45;;;;;;;20.64;64.26;99924.59;5052878;28;20516;-79
2022/11/04 06:36:06;;;;;;;21.65;16.73;;;;;;;20.62;63.40;99919.38;5054350;28;20045;-79
2022/11/04 06:38:36;;;;;;;23.10;16.73;;;;;;;20.63;63.25;99937.19;5054503;28;20041;-79
2022/11/04 06:41:05;;;;;;;20.98;14.73;;;;;;;20.61;62.37;99963.38;5054182;28;20052;-82
2022/11/04 06:43:33;;;;;;;18.88;13.90;;;;;;;20.60;61.99;99964.41;5054810;28;20044;-79
2022/11/04 06:46:01;;;;;;;18.13;12.57;;;;;;;20.61;61.38;99949.94;5054924;28;20045;-79
2022/11/04 06:48:30;;;;;;;17.40;11.30;;;;;;;20.59;60.91;99938.53;5054563;28;20456;-78
2022/11/04 06:50:58;;;;;;;16.67;11.60;;;;;;;20.59;61.02;99946.59;5054424;28;20053;-77
2022/11/04 06:53:26;;;;;;;15.50;10.52;;;;;;;20.59;61.11;99970.78;5054804;28;20495;-78
2022/11/04 06:56:02;;;;;;;15.80;9.15;;;;;;;20.58;60.46;99990.63;5054135;28;20041;-77
2022/11/04 06:58:30;;;;;;;16.13;9.93;;;;;;;20.58;60.40;99987.06;5054873;28;20056;-78
2022/11/04 07:00:57;;;;;;;13.88;9.52;;;;;;;20.59;60.43;99986.09;5054286;28;20408;-79
2022/11/04 07:03:24;;;;;;;14.25;9.18;;;;;;;20.58;60.80;99979.00;5055711;28;20049;-79
2022/11/04 07:05:52;;;;;;;13.32;8.48;;;;;;;20.57;60.42;99982.69;5058596;28;20391;-80
2022/11/04 07:08:19;;;;;;;11.60;9.07;;;;;;;20.57;60.87;99978.16;5058451;28;20052;-80
2022/11/04 07:10:46;;;;;;;14.05;8.80;;;;;;;20.57;60.64;99978.16;5057590;28;20052;-77
2022/11/04 07:13:15;;;;;;;13.85;10.35;;;;;;;20.57;61.72;99962.03;5055972;28;20057;-77
2022/11/04 07:15:42;;;;;;;15.57;10.20;;;;;;;20.58;62.59;99965.56;5058036;28;20045;-78
2022/11/04 07:18:10;;;;;;;14.20;10.50;;;;;;;20.57;62.53;99967.41;5057957;28;20048;-79
2022/11/04 07:20:38;;;;;;;15.55;9.63;;;;;;;20.58;61.72;99962.84;5057591;28;20064;-79
2022/11/04 07:23:06;;;;;;;15.25;9.15;;;;;;;20.58;62.19;99966.41;5056837;28;20060;-79
2022/11/04 07:25:35;;;;;;;11.93;8.65;;;;;;;20.58;62.04;99962.84;5058042;28;20408;-81
2022/11/04 07:28:02;;;;;;;12.15;6.75;;;;;;;20.55;59.99;99958.66;5057637;28;20048;-80
2022/11/04 07:30:29;;;;;;;10.38;6.00;;;;;;;20.48;59.62;99963.84;5057919;28;20152;-79
2022/11/04 07:32:57;;;;;;;8.88;3.83;;;;;;;20.43;58.44;99959.91;5058029;28;20074;-80
2022/11/04 07:35:24;;;;;;;4.82;3.10;;;;;;;20.38;57.43;99973.00;5057626;28;20049;-78
2022/11/04 07:37:53;;;;;;;5.07;2.47;;;;;;;20.32;57.53;99987.91;5056722;28;20048;-80
2022/11/04 07:40:21;;;;;;;5.82;1.95;;;;;;;20.28;57.12;99983.00;5057094;28;20045;-79
2022/11/04 07:42:48;;;;;;;3.83;1.75;;;;;;;20.22;56.71;99990.72;5055503;28;20052;-78
2022/11/04 07:45:17;;;;;;;3.08;1.40;;;;;;;20.17;56.09;99992.16;5055302;28;20056;-79
2022/11/04 07:47:44;;;;;;;2.67;1.10;;;;;;;20.09;56.13;99998.31;5057935;28;20052;-79
2022/11/04 07:50:12;;;;;;;2.50;0.90;;;;;;;20.05;55.99;100002.31;5057391;28;20052;-79
2022/11/04 07:52:39;;;;;;;2.08;0.75;;;;;;;20.00;56.37;100005.50;5057896;28;20049;-79
2022/11/04 07:55:07;;;;;;;3.58;1.27;;;;;;;19.99;56.63;100000.28;5055435;28;20053;-80
2022/11/04 07:57:35;;;;;;;2.13;0.77;;;;;;;19.98;56.28;100004.81;5057148;28;20045;-78
2022/11/04 08:00:05;;;;;;;2.72;0.95;;;;;;;19.98;56.32;100003.97;5057053;28;20048;-81
2022/11/04 08:02:38;;;;;;;4.70;1.30;;;;;;;19.97;56.00;100010.31;5063947;28;20053;-80
2022/11/04 08:05:06;;;;;;;3.75;0.70;;;;;;;19.99;56.22;100011.03;5058194;28;20056;-80
2022/11/04 08:07:33;;;;;;;1.67;0.68;;;;;;;19.97;56.03;100021.94;5057410;28;20045;-80
2022/11/04 08:10:01;;;;;;;1.58;0.60;;;;;;;19.98;56.28;100009.34;5055736;28;20052;-80
2022/11/04 08:12:28;;;;;;;2.47;0.88;;;;;;;19.99;56.97;100008.34;5055724;28;20049;-81
2022/11/04 08:14:55;;;;;;;2.72;0.90;;;;;;;20.00;56.83;99994.75;5054392;28;20056;-80
2022/11/04 08:17:22;;;;;;;1.50;0.50;;;;;;;20.04;57.22;99995.28;5056919;28;20045;-80
2022/11/04 08:19:51;;;;;;;2.92;0.70;;;;;;;20.04;56.69;99989.06;5054715;28;20049;-80
2022/11/04 08:22:18;;;;;;;2.65;0.93;;;;;;;20.07;56.71;99978.84;5055074;28;20049;-80
2022/11/04 08:24:48;;;;;;;5.28;0.57;;;;;;;20.11;56.91;99977.53;5056198;28;20052;-80
2022/11/04 08:27:16;;;;;;;2.60;0.60;;;;;;;20.13;56.07;99970.13;5054919;28;20060;-80
2022/11/04 08:29:43;;;;;;;1.42;0.50;;;;;;;20.15;56.34;99970.84;5055736;28;20049;-79
2022/11/04 08:32:11;;;;;;;2.05;0.80;;;;;;;20.19;56.57;99966.84;5055968;28;20052;-81
2022/11/04 08:34:38;;;;;;;1.42;0.63;;;;;;;20.23;56.23;99967.38;5055752;28;20041;-81
2022/11/04 08:37:06;;;;;;;3.45;0.57;;;;;;;20.24;55.97;99961.81;5055776;28;20396;-81
2022/11/04 08:39:33;;;;;;;4.68;0.70;;;;;;;20.26;55.11;99959.00;5053991;28;20037;-80
2022/11/04 08:42:00;;;;;;;2.80;0.50;;;;;;;20.25;55.22;99952.78;5055701;28;20049;-80
2022/11/04 08:44:28;;;;;;;1.40;0.43;;;;;;;20.24;55.02;99945.69;5055367;28;20381;-80
2022/11/04 08:46:55;;;;;;;4.85;0.88;;;;;;;20.26;55.32;99948.25;5055777;28;20045;-79
2022/11/04 08:49:22;;;;;;;2.38;0.60;;;;;;;20.29;55.11;99939.00;5056039;28;20381;-80
2022/11/04 08:51:55;;;;;;;2.45;0.50;;;;;;;20.29;55.05;99931.78;5055719;28;20045;-80
2022/11/04 08:54:23;;;;;;;;;;;;;;;20.32;55.01;99926.09;5054741;28;20049;-79
2022/11/04 08:56:51;;;;;;;1.35;0.40;;;;;;;20.33;54.99;99919.69;5055870;28;19925;-79
2022/11/04 08:59:18;;;;;;;0.88;0.40;;;;;;;20.35;54.82;99911.50;5055561;28;20404;-79
2022/11/04 09:01:46;;;;;;;2.85;0.80;;;;;;;20.36;54.49;99921.22;5055265;28;20053;-79
2022/11/04 09:04:13;;;;;;;1.98;0.60;;;;;;;20.36;54.45;99908.63;5054270;28;20060;-79
2022/11/04 09:06:43;;;;;;;1.92;0.70;;;;;;;20.39;54.25;99920.91;5054591;28;20403;-79
2022/11/04 09:09:13;;;;;;;1.42;0.35;;;;;;;20.39;54.39;99915.53;5055625;28;20041;-79
2022/11/04 09:11:41;;;;;;;0.93;0.32;;;;;;;20.39;54.13;99913.69;5055957;28;20048;-79
2022/11/04 09:14:10;;;;;;;2.90;0.50;;;;;;;20.40;54.23;99901.94;5054782;28;20045;-79
2022/11/04 09:16:39;;;;;;;0.80;0.28;;;;;;;20.40;53.92;99912.69;5058647;28;20051;-80
2022/11/04 09:19:07;;;;;;;2.50;0.50;;;;;;;20.42;53.87;99907.16;5075614;28;20498;-80
2022/11/04 09:21:34;;;;;;;2.72;0.50;;;;;;;20.44;54.12;99907.84;5075002;28;20060;-79
2022/11/04 09:24:02;;;;;;;1.40;0.30;;;;;;;20.43;53.59;99907.00;5075391;28;20041;-79
2022/11/04 09:26:30;;;;;;;0.60;0.20;;;;;;;20.44;53.83;99908.66;5075873;28;20052;-79
2022/11/04 09:28:58;;;;;;;0.77;0.25;;;;;;;20.43;53.40;99907.00;5075936;28;20483;-79
2022/11/04 09:31:28;;;;;;;0.60;0.20;;;;;;;20.44;53.37;99908.66;5076332;28;20115;-79
2022/11/04 09:33:55;;;;;;;1.33;0.40;;;;;;;20.45;53.20;99901.44;5074610;28;20041;-80
2022/11/04 09:36:23;;;;;;;0.73;0.30;;;;;;;20.45;52.95;99907.66;5075262;28;20045;-80
2022/11/04 09:38:51;;;;;;;0.50;0.20;;;;;;;20.45;52.50;99890.69;5075456;28;20045;-80
2022/11/04 09:42:00;;;;;;;1.00;0.30;;;;;;;20.44;52.58;99886.31;5074825;28;20051;-80
2022/11/04 09:44:27;;;;;;;0.77;0.30;;;;;;;20.45;51.93;99883.47;5074310;28;20036;-80
2022/11/04 09:46:59;;;;;;;1.58;0.30;;;;;;;20.45;52.59;99888.84;5074343;28;20052;-80
2022/11/04 09:49:32;;;;;;;0.77;0.22;;;;;;;20.43;51.94;99887.34;5074727;28;20045;-80
2022/11/04 09:52:04;;;;;;;0.98;0.35;;;;;;;20.43;51.89;99879.28;5073720;28;20045;-81
2022/11/04 09:54:43;;;;;;;1.08;0.40;;;;;;;20.42;51.66;99882.97;5074725;28;20048;-81
2022/11/04 09:57:18;;;;;;;0.80;0.27;;;;;;;20.39;51.34;99883.28;5074363;28;20044;-86
2022/11/04 09:59:47;;;;;;;1.10;0.20;;;;;;;20.40;51.23;99885.81;5073959;28;20041;-79
2022/11/04 10:02:55;;;;;;;1.75;0.40;;;;;;;20.41;51.63;99882.09;5073691;28;20049;-80
2022/11/04 10:05:37;;;;;;;0.52;0.13;;;;;;;20.42;51.42;99882.97;5072349;28;20507;-80
2022/11/04 10:08:23;;;;;;;2.78;0.40;;;;;;;20.42;50.82;99881.13;5074445;28;20049;-78
2022/11/04 10:11:11;;;;;;;0.63;0.25;;;;;;;20.42;50.98;99880.28;5075749;28;20044;-78
2022/11/04 10:13:56;;;;;;;0.65;0.20;;;;;;;20.42;50.60;99889.19;5074308;28;20048;-79
2022/11/04 10:16:45;;;;;;;0.80;0.20;;;;;;;20.40;50.97;99874.22;5074793;28;20051;-80
2022/11/04 10:19:32;;;;;;;0.38;0.13;;;;;;;20.41;50.73;99878.56;5074479;28;20044;-79
2022/11/04 10:22:11;;;;;;;1.13;0.20;;;;;;;20.41;50.10;99886.63;5073759;28;20068;-79
2022/11/04 10:24:45;;;;;;;0.20;0.10;;;;;;;20.41;50.04;99883.94;5075448;28;20048;-79
2022/11/04 10:27:20;;;;;;;1.50;0.30;;;;;;;20.41;49.94;99875.88;5075348;28;20400;-80
2022/11/04 10:29:55;;;;;;;0.32;0.10;;;;;;;20.42;50.27;99872.22;5075180;28;20044;-80
2022/11/04 10:32:52;;;;;;;0.63;0.20;;;;;;;20.42;50.34;99877.59;5075568;28;20059;-80
2022/11/04 10:35:35;;;;;;;2.00;0.20;;;;;;;20.42;50.08;99882.97;5075969;28;20052;-80
2022/11/04 10:38:20;;;;;;;0.63;0.13;;;;;;;20.43;50.59;99876.59;5078397;28;20053;-80
2022/11/04 10:40:50;;;;;;;0.82;0.20;;;;;;;20.44;49.85;99878.25;5080063;28;20048;-81
2022/11/04 10:43:27;;;;;;;2.10;0.22;;;;;;;20.44;50.29;99864.81;5078685;28;20052;-80
2022/11/04 10:46:37;;;;;;;0.57;0.17;;;;;;;20.43;50.99;99861.28;5079313;28;20044;-81
2022/11/04 10:49:41;;;;;;;2.33;0.38;;;;;;;20.44;51.07;99860.28;5078397;28;20506;-80
2022/11/04 10:52:32;;;;;;;0.98;0.30;;;;;;;20.46;51.58;99854.75;5074722;28;20519;-81
2022/11/04 10:55:00;;;;;;;0.43;0.10;;;;;;;20.46;51.68;99846.69;5058712;28;20052;-82
2022/11/04 10:57:29;;;;;;;0.50;0.13;;;;;;;20.45;51.51;99839.59;5058795;28;20045;-83
2022/11/04 10:59:59;;;;;;;0.35;0.10;;;;;;;20.45;50.66;99839.59;5058234;28;20049;-84
2022/11/04 11:02:36;;;;;;;0.80;0.20;;;;;;;20.45;50.98;99829.69;5058814;28;20064;-83
2022/11/04 11:05:14;;;;;;;1.02;0.30;;;;;;;20.45;50.63;99837.75;5057822;28;20056;-80
2022/11/04 11:07:47;;;;;;;2.03;0.30;;;;;;;20.44;50.66;99819.94;5058185;28;20056;-81
2022/11/04 11:10:31;;;;;;;4.25;0.88;;;;;;;20.44;50.87;99825.31;5058572;28;20044;-82
2022/11/04 11:13:05;;;;;;;3.00;0.82;;;;;;;20.45;51.05;99812.72;5057567;28;20053;-80
2022/11/04 11:15:36;;;;;;;6.00;0.93;;;;;;;20.46;51.77;99825.19;5057679;28;20052;-82
2022/11/04 11:18:07;;;;;;;2.40;0.50;;;;;;;20.47;52.03;99826.84;5058617;28;20044;-86
2022/11/04 11:20:36;;;;;;;3.35;1.30;;;;;;;20.47;53.03;99821.47;5058251;28;20045;-81
2022/11/04 11:23:08;;;;;;;4.05;1.67;;;;;;;20.46;52.29;99817.13;5058389;28;20503;-81
2022/11/04 11:25:44;;;;;;;6.00;2.33;;;;;;;20.46;51.80;99814.44;5055691;28;20407;-82
2022/11/04 11:28:21;;;;;;;6.05;1.95;;;;;;;20.46;51.42;99820.66;5056387;28;20053;-81
2022/11/04 11:30:54;;;;;;;5.90;2.22;;;;;;;20.45;51.45;99816.25;5056667;28;20480;-81
2022/11/04 11:33:30;;;;;;;6.40;2.40;;;;;;;20.46;50.95;99825.19;5055587;28;20041;-81
2022/11/04 11:36:11;;;;;;;5.63;2.22;;;;;;;20.47;51.80;99826.84;5057433;28;20060;-79
2022/11/04 11:38:52;;;;;;;4.13;1.88;;;;;;;20.46;51.70;99836.78;5057018;28;20045;-79
2022/11/04 11:41:27;;;;;;;4.07;1.55;;;;;;;20.46;51.80;99826.03;5056150;28;20037;-79
2022/11/04 11:44:00;;;;;;;6.22;2.13;;;;;;;20.46;51.56;99831.41;5056066;28;20045;-78
2022/11/04 11:46:30;;;;;;;4.43;2.08;;;;;;;20.45;51.30;99821.63;5055989;28;20052;-79
2022/11/04 11:49:01;;;;;;;4.63;1.80;;;;;;;20.46;51.21;99812.59;5055575;28;20056;-79
2022/11/04 11:51:32;;;;;;;4.40;1.60;;;;;;;20.45;51.14;99813.56;5055889;28;20044;-79
2022/11/04 11:54:23;;;;;;;4.20;1.50;;;;;;;20.46;51.19;99809.06;5055979;28;20049;-80
2022/11/04 11:56:55;;;;;;;5.40;1.67;;;;;;;20.46;51.68;99798.31;5056146;28;20045;-80
2022/11/04 11:59:58;;;;;;;7.15;2.13;;;;;;;20.47;52.86;99799.97;5056238;28;20049;-85
2022/11/04 12:03:05;;;;;;;4.38;1.95;;;;;;;20.47;52.89;99791.91;5055532;28;20041;-77
2022/11/04 12:06:01;;;;;;;4.18;1.67;;;;;;;20.47;52.44;99790.06;5055711;28;20041;-78
2022/11/04 12:09:22;;;;;;;3.50;1.52;;;;;;;20.47;51.65;99794.59;5054187;28;20408;-78
2022/11/04 12:12:09;;;;;;;3.00;1.35;;;;;;;20.47;51.21;99786.53;5055483;28;20041;-78
2022/11/04 12:14:58;;;;;;;4.10;1.05;;;;;;;20.46;50.61;99779.47;5055542;28;20044;-79
2022/11/04 12:17:44;;;;;;;2.80;1.20;;;;;;;20.45;50.76;99777.78;5055286;28;20052;-79
2022/11/04 12:20:24;;;;;;;2.88;1.17;;;;;;;20.47;51.19;99770.41;5054885;28;20053;-79
2022/11/04 12:23:07;;;;;;;1.67;0.85;;;;;;;20.46;50.79;99757.97;5055801;28;20400;-83